sensor_id;sensor_type;location;lat;lon;timestamp;P1;durP1;ratioP1;P2;durP2;ratioP2
2542;SDS011;1116;51.502;7.414;2023-02-16T00:01:56;27.20;;;20.07;;
2542;SDS011;1116;51.502;7.414;2023-02-16T00:04:28;26.93;;;19.50;;
2542;SDS011;1116;51.502;7.414;2023-02-16T00:07:00;27.17;;;17.93;;
2542;SDS011;1116;51.502;7.414;2023-02-16T00:09:31;28.13;;;19.77;;
2542;SDS011;1116;51.502;7.414;2023-02-16T00:12:02;25.13;;;19.70;;
2542;SDS011;1116;51.502;7.414;2023-02-16T00:14:57;30.53;;;19.20;;
2542;SDS011;1116;51.502;7.414;2023-02-16T00:17:31;27.47;;;19.47;;
2542;SDS011;1116;51.502;7.414;2023-02-16T00:20:04;24.20;;;18.73;;
2542;SDS011;1116;51.502;7.414;2023-02-16T00:22:36;28.63;;;19.50;;
2542;SDS011;1116;51.502;7.414;2023-02-16T00:25:07;28.60;;;19.20;;
2542;SDS011;1116;51.502;7.414;2023-02-16T00:27:38;24.13;;;18.77;;
2542;SDS011;1116;51.502;7.414;2023-02-16T00:30:12;24.57;;;19.23;;
2542;SDS011;1116;51.502;7.414;2023-02-16T00:32:47;23.50;;;18.33;;
2542;SDS011;1116;51.502;7.414;2023-02-16T00:35:30;25.20;;;19.43;;
2542;SDS011;1116;51.502;7.414;2023-02-16T00:38:01;25.83;;;19.63;;
2542;SDS011;1116;51.502;7.414;2023-02-16T00:40:35;26.83;;;19.20;;
2542;SDS011;1116;51.502;7.414;2023-02-16T00:43:06;24.63;;;19.30;;
2542;SDS011;1116;51.502;7.414;2023-02-16T00:45:46;25.27;;;18.43;;
2542;SDS011;1116;51.502;7.414;2023-02-16T00:48:24;25.50;;;18.70;;
2542;SDS011;1116;51.502;7.414;2023-02-16T00:50:56;26.00;;;19.30;;
2542;SDS011;1116;51.502;7.414;2023-02-16T00:53:27;24.63;;;18.27;;
2542;SDS011;1116;51.502;7.414;2023-02-16T00:55:58;26.40;;;19.43;;
2542;SDS011;1116;51.502;7.414;2023-02-16T00:58:29;27.83;;;19.73;;
2542;SDS011;1116;51.502;7.414;2023-02-16T01:01:02;25.50;;;19.30;;
2542;SDS011;1116;51.502;7.414;2023-02-16T01:03:39;28.20;;;20.17;;
2542;SDS011;1116;51.502;7.414;2023-02-16T01:06:11;28.60;;;20.00;;
2542;SDS011;1116;51.502;7.414;2023-02-16T01:08:54;28.30;;;20.13;;
2542;SDS011;1116;51.502;7.414;2023-02-16T01:11:49;28.00;;;18.73;;
2542;SDS011;1116;51.502;7.414;2023-02-16T01:14:20;24.97;;;18.80;;
2542;SDS011;1116;51.502;7.414;2023-02-16T01:16:51;26.63;;;18.63;;
2542;SDS011;1116;51.502;7.414;2023-02-16T01:19:25;28.40;;;19.63;;
2542;SDS011;1116;51.502;7.414;2023-02-16T01:21:58;25.33;;;20.13;;
2542;SDS011;1116;51.502;7.414;2023-02-16T01:24:29;26.67;;;18.70;;
2542;SDS011;1116;51.502;7.414;2023-02-16T01:27:01;28.27;;;20.20;;
2542;SDS011;1116;51.502;7.414;2023-02-16T01:29:34;27.30;;;19.90;;
2542;SDS011;1116;51.502;7.414;2023-02-16T01:32:12;29.53;;;20.33;;
2542;SDS011;1116;51.502;7.414;2023-02-16T01:34:46;28.63;;;19.17;;
2542;SDS011;1116;51.502;7.414;2023-02-16T01:37:17;27.20;;;20.93;;
2542;SDS011;1116;51.502;7.414;2023-02-16T01:39:48;24.30;;;18.53;;
2542;SDS011;1116;51.502;7.414;2023-02-16T01:42:22;25.97;;;19.27;;
2542;SDS011;1116;51.502;7.414;2023-02-16T01:45:01;23.60;;;18.90;;
2542;SDS011;1116;51.502;7.414;2023-02-16T01:47:39;26.03;;;19.17;;
2542;SDS011;1116;51.502;7.414;2023-02-16T01:50:23;25.40;;;19.10;;
2542;SDS011;1116;51.502;7.414;2023-02-16T01:52:58;25.00;;;18.60;;
2542;SDS011;1116;51.502;7.414;2023-02-16T01:55:31;24.47;;;18.83;;
2542;SDS011;1116;51.502;7.414;2023-02-16T01:58:11;26.07;;;19.57;;
2542;SDS011;1116;51.502;7.414;2023-02-16T02:03:46;28.50;;;20.70;;
2542;SDS011;1116;51.502;7.414;2023-02-16T02:06:32;30.40;;;20.00;;
2542;SDS011;1116;51.502;7.414;2023-02-16T02:09:05;29.00;;;19.97;;
2542;SDS011;1116;51.502;7.414;2023-02-16T02:11:40;24.47;;;19.03;;
2542;SDS011;1116;51.502;7.414;2023-02-16T02:14:16;28.17;;;18.60;;
2542;SDS011;1116;51.502;7.414;2023-02-16T02:16:52;24.70;;;19.10;;
2542;SDS011;1116;51.502;7.414;2023-02-16T02:19:24;25.63;;;18.20;;
2542;SDS011;1116;51.502;7.414;2023-02-16T02:22:06;26.97;;;19.40;;
2542;SDS011;1116;51.502;7.414;2023-02-16T02:25:42;27.60;;;19.17;;
2542;SDS011;1116;51.502;7.414;2023-02-16T02:31:47;28.40;;;20.20;;
2542;SDS011;1116;51.502;7.414;2023-02-16T02:34:23;26.73;;;19.47;;
2542;SDS011;1116;51.502;7.414;2023-02-16T02:37:02;23.93;;;18.90;;
2542;SDS011;1116;51.502;7.414;2023-02-16T02:39:42;25.33;;;18.90;;
2542;SDS011;1116;51.502;7.414;2023-02-16T02:42:22;25.93;;;19.03;;
2542;SDS011;1116;51.502;7.414;2023-02-16T02:45:02;25.40;;;19.13;;
2542;SDS011;1116;51.502;7.414;2023-02-16T02:47:37;26.50;;;20.00;;
2542;SDS011;1116;51.502;7.414;2023-02-16T02:50:28;28.23;;;18.37;;
2542;SDS011;1116;51.502;7.414;2023-02-16T02:53:07;27.47;;;20.20;;
2542;SDS011;1116;51.502;7.414;2023-02-16T02:55:47;27.80;;;20.37;;
2542;SDS011;1116;51.502;7.414;2023-02-16T02:58:34;26.13;;;18.83;;
2542;SDS011;1116;51.502;7.414;2023-02-16T03:01:25;26.63;;;18.70;;
2542;SDS011;1116;51.502;7.414;2023-02-16T03:03:56;24.60;;;19.30;;
2542;SDS011;1116;51.502;7.414;2023-02-16T03:06:29;27.93;;;19.40;;
2542;SDS011;1116;51.502;7.414;2023-02-16T03:09:06;30.47;;;19.60;;
2542;SDS011;1116;51.502;7.414;2023-02-16T03:11:40;24.60;;;18.70;;
2542;SDS011;1116;51.502;7.414;2023-02-16T03:14:28;28.43;;;19.20;;
2542;SDS011;1116;51.502;7.414;2023-02-16T03:17:06;26.37;;;19.40;;
2542;SDS011;1116;51.502;7.414;2023-02-16T03:19:52;30.20;;;19.33;;
2542;SDS011;1116;51.502;7.414;2023-02-16T03:22:37;25.70;;;18.80;;
2542;SDS011;1116;51.502;7.414;2023-02-16T03:25:21;25.83;;;18.60;;
2542;SDS011;1116;51.502;7.414;2023-02-16T03:28:14;26.17;;;18.77;;
2542;SDS011;1116;51.502;7.414;2023-02-16T03:31:00;28.63;;;20.00;;
2542;SDS011;1116;51.502;7.414;2023-02-16T03:33:35;29.27;;;18.57;;
2542;SDS011;1116;51.502;7.414;2023-02-16T03:36:07;25.00;;;18.53;;
2542;SDS011;1116;51.502;7.414;2023-02-16T03:38:39;24.00;;;18.57;;
2542;SDS011;1116;51.502;7.414;2023-02-16T03:41:10;24.53;;;19.00;;
2542;SDS011;1116;51.502;7.414;2023-02-16T03:43:41;27.20;;;18.80;;
2542;SDS011;1116;51.502;7.414;2023-02-16T03:46:12;27.57;;;18.33;;
2542;SDS011;1116;51.502;7.414;2023-02-16T03:48:48;25.10;;;18.10;;
2542;SDS011;1116;51.502;7.414;2023-02-16T03:51:19;26.27;;;17.87;;
2542;SDS011;1116;51.502;7.414;2023-02-16T03:53:52;26.90;;;19.60;;
2542;SDS011;1116;51.502;7.414;2023-02-16T03:56:23;25.70;;;19.37;;
2542;SDS011;1116;51.502;7.414;2023-02-16T03:58:54;26.10;;;18.50;;
2542;SDS011;1116;51.502;7.414;2023-02-16T04:01:25;28.70;;;19.40;;
2542;SDS011;1116;51.502;7.414;2023-02-16T04:03:59;26.73;;;19.33;;
2542;SDS011;1116;51.502;7.414;2023-02-16T04:06:32;26.70;;;17.90;;
2542;SDS011;1116;51.502;7.414;2023-02-16T04:09:03;26.47;;;18.73;;
2542;SDS011;1116;51.502;7.414;2023-02-16T04:11:37;28.00;;;19.23;;
2542;SDS011;1116;51.502;7.414;2023-02-16T04:14:20;26.57;;;18.20;;
2542;SDS011;1116;51.502;7.414;2023-02-16T04:16:51;28.23;;;19.00;;
2542;SDS011;1116;51.502;7.414;2023-02-16T04:19:25;24.77;;;18.30;;
2542;SDS011;1116;51.502;7.414;2023-02-16T04:21:57;26.03;;;18.53;;
2542;SDS011;1116;51.502;7.414;2023-02-16T04:24:27;29.90;;;18.70;;
2542;SDS011;1116;51.502;7.414;2023-02-16T04:26:58;29.47;;;19.37;;
2542;SDS011;1116;51.502;7.414;2023-02-16T04:29:30;24.90;;;18.30;;
2542;SDS011;1116;51.502;7.414;2023-02-16T04:32:00;27.30;;;19.67;;
2542;SDS011;1116;51.502;7.414;2023-02-16T04:34:59;28.50;;;18.87;;
2542;SDS011;1116;51.502;7.414;2023-02-16T04:37:30;27.27;;;19.03;;
2542;SDS011;1116;51.502;7.414;2023-02-16T04:40:02;26.10;;;19.07;;
2542;SDS011;1116;51.502;7.414;2023-02-16T04:42:33;25.77;;;18.93;;
2542;SDS011;1116;51.502;7.414;2023-02-16T04:45:04;28.20;;;19.77;;
2542;SDS011;1116;51.502;7.414;2023-02-16T04:47:36;26.50;;;19.33;;
2542;SDS011;1116;51.502;7.414;2023-02-16T04:50:10;27.37;;;18.83;;
2542;SDS011;1116;51.502;7.414;2023-02-16T04:52:41;27.70;;;20.10;;
2542;SDS011;1116;51.502;7.414;2023-02-16T04:55:12;27.00;;;20.13;;
2542;SDS011;1116;51.502;7.414;2023-02-16T04:57:43;23.00;;;17.77;;
2542;SDS011;1116;51.502;7.414;2023-02-16T05:00:14;26.60;;;18.70;;
2542;SDS011;1116;51.502;7.414;2023-02-16T05:02:45;26.77;;;18.93;;
2542;SDS011;1116;51.502;7.414;2023-02-16T05:05:19;27.80;;;19.07;;
2542;SDS011;1116;51.502;7.414;2023-02-16T05:07:50;27.80;;;19.97;;
2542;SDS011;1116;51.502;7.414;2023-02-16T05:10:21;29.20;;;19.90;;
2542;SDS011;1116;51.502;7.414;2023-02-16T05:12:54;24.57;;;18.40;;
2542;SDS011;1116;51.502;7.414;2023-02-16T05:18:39;27.40;;;20.13;;
2542;SDS011;1116;51.502;7.414;2023-02-16T05:21:13;26.40;;;19.87;;
2542;SDS011;1116;51.502;7.414;2023-02-16T05:23:56;29.37;;;20.33;;
2542;SDS011;1116;51.502;7.414;2023-02-16T05:26:31;31.83;;;20.20;;
2542;SDS011;1116;51.502;7.414;2023-02-16T05:29:02;27.33;;;20.60;;
2542;SDS011;1116;51.502;7.414;2023-02-16T05:31:33;28.87;;;19.97;;
2542;SDS011;1116;51.502;7.414;2023-02-16T05:34:04;26.33;;;19.83;;
2542;SDS011;1116;51.502;7.414;2023-02-16T05:36:37;27.87;;;18.90;;
2542;SDS011;1116;51.502;7.414;2023-02-16T05:39:08;27.80;;;20.07;;
2542;SDS011;1116;51.502;7.414;2023-02-16T05:41:39;28.77;;;20.50;;
2542;SDS011;1116;51.502;7.414;2023-02-16T05:44:10;28.47;;;18.90;;
2542;SDS011;1116;51.502;7.414;2023-02-16T05:46:42;27.43;;;20.40;;
2542;SDS011;1116;51.502;7.414;2023-02-16T05:49:16;29.20;;;20.20;;
2542;SDS011;1116;51.502;7.414;2023-02-16T05:51:49;28.97;;;20.80;;
2542;SDS011;1116;51.502;7.414;2023-02-16T05:54:23;28.70;;;20.43;;
2542;SDS011;1116;51.502;7.414;2023-02-16T05:56:54;29.47;;;19.67;;
2542;SDS011;1116;51.502;7.414;2023-02-16T05:59:28;29.53;;;21.63;;
2542;SDS011;1116;51.502;7.414;2023-02-16T06:01:59;29.73;;;20.90;;
2542;SDS011;1116;51.502;7.414;2023-02-16T06:04:34;29.93;;;20.30;;
2542;SDS011;1116;51.502;7.414;2023-02-16T06:07:07;27.60;;;19.80;;
2542;SDS011;1116;51.502;7.414;2023-02-16T06:09:41;29.53;;;20.63;;
2542;SDS011;1116;51.502;7.414;2023-02-16T06:12:12;28.83;;;21.10;;
2542;SDS011;1116;51.502;7.414;2023-02-16T06:14:43;30.43;;;21.07;;
2542;SDS011;1116;51.502;7.414;2023-02-16T06:17:13;28.87;;;20.13;;
2542;SDS011;1116;51.502;7.414;2023-02-16T06:19:47;28.97;;;21.77;;
2542;SDS011;1116;51.502;7.414;2023-02-16T06:22:20;28.80;;;20.00;;
2542;SDS011;1116;51.502;7.414;2023-02-16T06:24:51;33.43;;;21.03;;
2542;SDS011;1116;51.502;7.414;2023-02-16T06:27:24;29.20;;;20.07;;
2542;SDS011;1116;51.502;7.414;2023-02-16T06:29:55;30.50;;;21.60;;
2542;SDS011;1116;51.502;7.414;2023-02-16T06:32:26;28.80;;;20.03;;
2542;SDS011;1116;51.502;7.414;2023-02-16T06:34:57;30.60;;;21.67;;
2542;SDS011;1116;51.502;7.414;2023-02-16T06:37:30;28.93;;;20.47;;
2542;SDS011;1116;51.502;7.414;2023-02-16T06:40:02;28.57;;;19.73;;
2542;SDS011;1116;51.502;7.414;2023-02-16T06:42:40;28.00;;;20.87;;
2542;SDS011;1116;51.502;7.414;2023-02-16T06:45:11;29.13;;;20.60;;
2542;SDS011;1116;51.502;7.414;2023-02-16T06:47:42;26.60;;;20.57;;
2542;SDS011;1116;51.502;7.414;2023-02-16T06:50:13;28.10;;;20.73;;
2542;SDS011;1116;51.502;7.414;2023-02-16T06:52:47;28.93;;;20.70;;
2542;SDS011;1116;51.502;7.414;2023-02-16T06:55:17;27.20;;;20.33;;
2542;SDS011;1116;51.502;7.414;2023-02-16T06:57:48;28.30;;;20.20;;
2542;SDS011;1116;51.502;7.414;2023-02-16T07:00:19;27.90;;;20.00;;
2542;SDS011;1116;51.502;7.414;2023-02-16T07:02:50;26.37;;;20.10;;
2542;SDS011;1116;51.502;7.414;2023-02-16T07:05:22;25.70;;;18.50;;
2542;SDS011;1116;51.502;7.414;2023-02-16T07:07:55;29.80;;;20.47;;
2542;SDS011;1116;51.502;7.414;2023-02-16T07:10:26;29.30;;;19.80;;
2542;SDS011;1116;51.502;7.414;2023-02-16T07:13:15;27.67;;;19.63;;
2542;SDS011;1116;51.502;7.414;2023-02-16T07:15:46;28.10;;;18.67;;
2542;SDS011;1116;51.502;7.414;2023-02-16T07:18:17;28.80;;;19.77;;
2542;SDS011;1116;51.502;7.414;2023-02-16T07:20:48;27.27;;;19.33;;
2542;SDS011;1116;51.502;7.414;2023-02-16T07:23:21;23.53;;;19.00;;
2542;SDS011;1116;51.502;7.414;2023-02-16T07:25:52;27.47;;;19.57;;
2542;SDS011;1116;51.502;7.414;2023-02-16T07:28:24;30.67;;;18.87;;
2542;SDS011;1116;51.502;7.414;2023-02-16T07:30:55;30.70;;;20.33;;
2542;SDS011;1116;51.502;7.414;2023-02-16T07:33:35;24.60;;;18.87;;
2542;SDS011;1116;51.502;7.414;2023-02-16T07:36:26;26.83;;;19.30;;
2542;SDS011;1116;51.502;7.414;2023-02-16T07:39:03;24.63;;;18.33;;
2542;SDS011;1116;51.502;7.414;2023-02-16T07:41:34;25.10;;;18.97;;
2542;SDS011;1116;51.502;7.414;2023-02-16T07:44:07;28.33;;;19.53;;
2542;SDS011;1116;51.502;7.414;2023-02-16T07:46:38;26.90;;;19.73;;
2542;SDS011;1116;51.502;7.414;2023-02-16T07:49:09;26.23;;;19.80;;
2542;SDS011;1116;51.502;7.414;2023-02-16T07:51:40;24.23;;;18.70;;
2542;SDS011;1116;51.502;7.414;2023-02-16T07:54:14;26.17;;;19.07;;
2542;SDS011;1116;51.502;7.414;2023-02-16T07:56:44;26.87;;;19.70;;
2542;SDS011;1116;51.502;7.414;2023-02-16T07:59:15;27.20;;;18.87;;
2542;SDS011;1116;51.502;7.414;2023-02-16T08:01:46;24.60;;;18.03;;
2542;SDS011;1116;51.502;7.414;2023-02-16T08:04:20;29.50;;;19.70;;
2542;SDS011;1116;51.502;7.414;2023-02-16T08:06:51;25.40;;;19.13;;
2542;SDS011;1116;51.502;7.414;2023-02-16T08:09:25;26.47;;;18.37;;
2542;SDS011;1116;51.502;7.414;2023-02-16T08:11:56;25.07;;;19.23;;
2542;SDS011;1116;51.502;7.414;2023-02-16T08:14:32;23.63;;;16.57;;
2542;SDS011;1116;51.502;7.414;2023-02-16T08:17:04;27.60;;;18.67;;
2542;SDS011;1116;51.502;7.414;2023-02-16T08:19:36;24.10;;;18.20;;
2542;SDS011;1116;51.502;7.414;2023-02-16T08:22:07;22.33;;;17.00;;
2542;SDS011;1116;51.502;7.414;2023-02-16T08:24:41;22.60;;;17.37;;
2542;SDS011;1116;51.502;7.414;2023-02-16T08:27:12;24.60;;;17.10;;
2542;SDS011;1116;51.502;7.414;2023-02-16T08:30:02;27.53;;;18.13;;
2542;SDS011;1116;51.502;7.414;2023-02-16T08:32:43;22.90;;;17.17;;
2542;SDS011;1116;51.502;7.414;2023-02-16T08:35:41;24.90;;;17.57;;
2542;SDS011;1116;51.502;7.414;2023-02-16T08:38:12;20.97;;;16.40;;
2542;SDS011;1116;51.502;7.414;2023-02-16T08:40:51;26.67;;;17.80;;
2542;SDS011;1116;51.502;7.414;2023-02-16T08:43:22;22.57;;;17.70;;
2542;SDS011;1116;51.502;7.414;2023-02-16T08:45:53;25.97;;;17.33;;
2542;SDS011;1116;51.502;7.414;2023-02-16T08:48:24;23.47;;;18.23;;
2542;SDS011;1116;51.502;7.414;2023-02-16T08:50:55;22.93;;;17.63;;
2542;SDS011;1116;51.502;7.414;2023-02-16T08:53:26;23.90;;;18.80;;
2542;SDS011;1116;51.502;7.414;2023-02-16T08:56:02;26.53;;;16.83;;
2542;SDS011;1116;51.502;7.414;2023-02-16T08:58:36;23.47;;;16.93;;
2542;SDS011;1116;51.502;7.414;2023-02-16T09:01:07;19.40;;;16.27;;
2542;SDS011;1116;51.502;7.414;2023-02-16T09:03:42;25.53;;;18.23;;
2542;SDS011;1116;51.502;7.414;2023-02-16T09:06:15;25.77;;;18.57;;
2542;SDS011;1116;51.502;7.414;2023-02-16T09:08:49;22.20;;;17.20;;
2542;SDS011;1116;51.502;7.414;2023-02-16T09:11:24;18.93;;;16.10;;
2542;SDS011;1116;51.502;7.414;2023-02-16T09:13:55;23.13;;;17.97;;
2542;SDS011;1116;51.502;7.414;2023-02-16T09:16:26;32.17;;;17.53;;
2542;SDS011;1116;51.502;7.414;2023-02-16T09:19:00;21.90;;;17.20;;
2542;SDS011;1116;51.502;7.414;2023-02-16T09:21:34;21.23;;;17.23;;
2542;SDS011;1116;51.502;7.414;2023-02-16T09:24:07;23.60;;;17.07;;
2542;SDS011;1116;51.502;7.414;2023-02-16T09:26:41;24.27;;;17.47;;
2542;SDS011;1116;51.502;7.414;2023-02-16T09:29:12;24.10;;;16.50;;
2542;SDS011;1116;51.502;7.414;2023-02-16T09:31:45;20.57;;;16.17;;
2542;SDS011;1116;51.502;7.414;2023-02-16T09:34:19;21.07;;;15.53;;
2542;SDS011;1116;51.502;7.414;2023-02-16T09:36:54;19.33;;;15.80;;
2542;SDS011;1116;51.502;7.414;2023-02-16T09:39:25;21.50;;;16.63;;
2542;SDS011;1116;51.502;7.414;2023-02-16T09:42:01;20.30;;;16.20;;
2542;SDS011;1116;51.502;7.414;2023-02-16T09:44:38;19.80;;;15.57;;
2542;SDS011;1116;51.502;7.414;2023-02-16T09:47:19;21.80;;;17.07;;
2542;SDS011;1116;51.502;7.414;2023-02-16T09:49:58;21.13;;;16.30;;
2542;SDS011;1116;51.502;7.414;2023-02-16T09:52:33;23.40;;;16.13;;
2542;SDS011;1116;51.502;7.414;2023-02-16T09:55:07;19.70;;;15.10;;
2542;SDS011;1116;51.502;7.414;2023-02-16T09:57:49;19.80;;;16.03;;
2542;SDS011;1116;51.502;7.414;2023-02-16T10:00:28;19.20;;;16.63;;
2542;SDS011;1116;51.502;7.414;2023-02-16T10:03:17;21.37;;;15.97;;
2542;SDS011;1116;51.502;7.414;2023-02-16T10:06:02;20.33;;;16.73;;
2542;SDS011;1116;51.502;7.414;2023-02-16T10:08:47;20.73;;;16.23;;
2542;SDS011;1116;51.502;7.414;2023-02-16T10:11:25;20.67;;;16.63;;
2542;SDS011;1116;51.502;7.414;2023-02-16T10:14:21;21.40;;;16.03;;
2542;SDS011;1116;51.502;7.414;2023-02-16T10:17:00;21.90;;;17.50;;
2542;SDS011;1116;51.502;7.414;2023-02-16T10:19:37;22.07;;;17.57;;
2542;SDS011;1116;51.502;7.414;2023-02-16T10:22:11;22.20;;;17.00;;
2542;SDS011;1116;51.502;7.414;2023-02-16T10:24:46;20.13;;;16.73;;
2542;SDS011;1116;51.502;7.414;2023-02-16T10:27:28;21.87;;;16.60;;
2542;SDS011;1116;51.502;7.414;2023-02-16T10:30:14;21.60;;;17.00;;
2542;SDS011;1116;51.502;7.414;2023-02-16T10:32:53;20.70;;;16.33;;
2542;SDS011;1116;51.502;7.414;2023-02-16T10:35:28;23.47;;;17.30;;
2542;SDS011;1116;51.502;7.414;2023-02-16T10:38:08;19.17;;;16.67;;
2542;SDS011;1116;51.502;7.414;2023-02-16T10:40:49;21.03;;;16.47;;
2542;SDS011;1116;51.502;7.414;2023-02-16T10:43:29;19.73;;;15.50;;
2542;SDS011;1116;51.502;7.414;2023-02-16T10:46:14;21.87;;;17.20;;
2542;SDS011;1116;51.502;7.414;2023-02-16T10:48:54;20.10;;;16.47;;
2542;SDS011;1116;51.502;7.414;2023-02-16T10:51:25;24.27;;;17.20;;
2542;SDS011;1116;51.502;7.414;2023-02-16T10:54:02;25.10;;;16.47;;
2542;SDS011;1116;51.502;7.414;2023-02-16T10:56:47;21.60;;;17.37;;
2542;SDS011;1116;51.502;7.414;2023-02-16T11:02:14;21.07;;;15.47;;
2542;SDS011;1116;51.502;7.414;2023-02-16T11:04:48;21.30;;;16.53;;
2542;SDS011;1116;51.502;7.414;2023-02-16T11:07:22;18.53;;;16.53;;
2542;SDS011;1116;51.502;7.414;2023-02-16T11:09:55;21.40;;;17.23;;
2542;SDS011;1116;51.502;7.414;2023-02-16T11:12:28;20.40;;;16.23;;
2542;SDS011;1116;51.502;7.414;2023-02-16T11:15:02;20.50;;;17.90;;
2542;SDS011;1116;51.502;7.414;2023-02-16T11:17:49;19.63;;;17.33;;
2542;SDS011;1116;51.502;7.414;2023-02-16T11:20:26;20.60;;;16.73;;
2542;SDS011;1116;51.502;7.414;2023-02-16T11:23:11;22.30;;;18.03;;
2542;SDS011;1116;51.502;7.414;2023-02-16T11:25:46;21.20;;;17.23;;
2542;SDS011;1116;51.502;7.414;2023-02-16T11:28:25;20.27;;;16.97;;
2542;SDS011;1116;51.502;7.414;2023-02-16T11:31:00;21.37;;;17.87;;
2542;SDS011;1116;51.502;7.414;2023-02-16T11:33:53;20.73;;;17.37;;
2542;SDS011;1116;51.502;7.414;2023-02-16T11:36:28;23.47;;;18.07;;
2542;SDS011;1116;51.502;7.414;2023-02-16T11:39:03;22.07;;;18.90;;
2542;SDS011;1116;51.502;7.414;2023-02-16T11:41:37;20.80;;;18.07;;
2542;SDS011;1116;51.502;7.414;2023-02-16T11:47:02;22.97;;;19.50;;
2542;SDS011;1116;51.502;7.414;2023-02-16T11:49:40;23.20;;;18.73;;
2542;SDS011;1116;51.502;7.414;2023-02-16T11:52:17;21.77;;;18.47;;
2542;SDS011;1116;51.502;7.414;2023-02-16T11:54:54;23.47;;;19.17;;
2542;SDS011;1116;51.502;7.414;2023-02-16T11:57:43;20.90;;;18.60;;
2542;SDS011;1116;51.502;7.414;2023-02-16T12:00:15;23.43;;;18.77;;
2542;SDS011;1116;51.502;7.414;2023-02-16T12:02:55;21.40;;;18.73;;
2542;SDS011;1116;51.502;7.414;2023-02-16T12:05:42;22.77;;;18.80;;
2542;SDS011;1116;51.502;7.414;2023-02-16T12:08:24;19.43;;;17.13;;
2542;SDS011;1116;51.502;7.414;2023-02-16T12:11:12;22.80;;;18.50;;
2542;SDS011;1116;51.502;7.414;2023-02-16T12:13:56;21.97;;;18.53;;
2542;SDS011;1116;51.502;7.414;2023-02-16T12:16:35;26.50;;;19.70;;
2542;SDS011;1116;51.502;7.414;2023-02-16T12:19:19;23.30;;;19.30;;
2542;SDS011;1116;51.502;7.414;2023-02-16T12:22:00;25.10;;;20.80;;
2542;SDS011;1116;51.502;7.414;2023-02-16T12:24:40;25.03;;;20.40;;
2542;SDS011;1116;51.502;7.414;2023-02-16T12:27:21;23.47;;;19.50;;
2542;SDS011;1116;51.502;7.414;2023-02-16T12:29:59;21.57;;;19.20;;
2542;SDS011;1116;51.502;7.414;2023-02-16T12:32:41;22.53;;;20.00;;
2542;SDS011;1116;51.502;7.414;2023-02-16T12:35:35;24.70;;;19.73;;
2542;SDS011;1116;51.502;7.414;2023-02-16T12:38:21;24.87;;;21.10;;
2542;SDS011;1116;51.502;7.414;2023-02-16T12:41:06;26.90;;;20.77;;
2542;SDS011;1116;51.502;7.414;2023-02-16T12:43:45;25.00;;;19.30;;
2542;SDS011;1116;51.502;7.414;2023-02-16T12:46:20;25.53;;;20.30;;
2542;SDS011;1116;51.502;7.414;2023-02-16T12:48:59;27.00;;;21.13;;
2542;SDS011;1116;51.502;7.414;2023-02-16T12:51:35;27.00;;;20.47;;
2542;SDS011;1116;51.502;7.414;2023-02-16T12:54:13;28.30;;;20.10;;
2542;SDS011;1116;51.502;7.414;2023-02-16T12:56:50;24.90;;;20.40;;
2542;SDS011;1116;51.502;7.414;2023-02-16T12:59:29;25.10;;;19.73;;
2542;SDS011;1116;51.502;7.414;2023-02-16T13:02:11;24.30;;;20.37;;
2542;SDS011;1116;51.502;7.414;2023-02-16T13:04:47;23.53;;;19.30;;
2542;SDS011;1116;51.502;7.414;2023-02-16T13:07:27;23.30;;;19.93;;
2542;SDS011;1116;51.502;7.414;2023-02-16T13:10:11;27.83;;;20.50;;
2542;SDS011;1116;51.502;7.414;2023-02-16T13:12:48;25.47;;;20.60;;
2542;SDS011;1116;51.502;7.414;2023-02-16T13:15:25;25.67;;;22.03;;
2542;SDS011;1116;51.502;7.414;2023-02-16T13:18:03;23.50;;;20.57;;
2542;SDS011;1116;51.502;7.414;2023-02-16T13:20:39;25.60;;;21.57;;
2542;SDS011;1116;51.502;7.414;2023-02-16T13:23:28;26.97;;;21.50;;
2542;SDS011;1116;51.502;7.414;2023-02-16T13:26:19;24.43;;;20.97;;
2542;SDS011;1116;51.502;7.414;2023-02-16T13:29:18;30.63;;;23.80;;
2542;SDS011;1116;51.502;7.414;2023-02-16T13:35:20;24.30;;;20.70;;
2542;SDS011;1116;51.502;7.414;2023-02-16T13:38:12;25.13;;;20.97;;
2542;SDS011;1116;51.502;7.414;2023-02-16T13:44:15;25.87;;;20.73;;
2542;SDS011;1116;51.502;7.414;2023-02-16T13:46:48;25.83;;;19.53;;
2542;SDS011;1116;51.502;7.414;2023-02-16T13:49:29;27.70;;;20.00;;
2542;SDS011;1116;51.502;7.414;2023-02-16T13:52:03;24.83;;;20.50;;
2542;SDS011;1116;51.502;7.414;2023-02-16T13:54:37;31.63;;;21.37;;
2542;SDS011;1116;51.502;7.414;2023-02-16T13:57:10;27.07;;;20.93;;
2542;SDS011;1116;51.502;7.414;2023-02-16T13:59:55;26.07;;;21.97;;
2542;SDS011;1116;51.502;7.414;2023-02-16T14:05:26;24.27;;;21.07;;
2542;SDS011;1116;51.502;7.414;2023-02-16T14:08:07;24.23;;;20.20;;
2542;SDS011;1116;51.502;7.414;2023-02-16T14:13:48;24.00;;;20.80;;
2542;SDS011;1116;51.502;7.414;2023-02-16T14:19:16;25.73;;;20.57;;
2542;SDS011;1116;51.502;7.414;2023-02-16T14:21:51;24.63;;;21.93;;
2542;SDS011;1116;51.502;7.414;2023-02-16T14:24:25;25.73;;;20.97;;
2542;SDS011;1116;51.502;7.414;2023-02-16T14:27:08;23.77;;;20.60;;
2542;SDS011;1116;51.502;7.414;2023-02-16T14:29:41;26.43;;;20.77;;
2542;SDS011;1116;51.502;7.414;2023-02-16T14:32:26;26.60;;;21.33;;
2542;SDS011;1116;51.502;7.414;2023-02-16T14:35:03;24.67;;;20.57;;
2542;SDS011;1116;51.502;7.414;2023-02-16T14:37:37;25.60;;;21.03;;
2542;SDS011;1116;51.502;7.414;2023-02-16T14:40:15;25.20;;;20.90;;
2542;SDS011;1116;51.502;7.414;2023-02-16T14:42:52;26.00;;;20.60;;
2542;SDS011;1116;51.502;7.414;2023-02-16T14:48:40;25.13;;;20.27;;
2542;SDS011;1116;51.502;7.414;2023-02-16T14:51:39;27.63;;;20.93;;
2542;SDS011;1116;51.502;7.414;2023-02-16T14:57:17;28.40;;;21.00;;
2542;SDS011;1116;51.502;7.414;2023-02-16T14:59:57;29.83;;;21.27;;
2542;SDS011;1116;51.502;7.414;2023-02-16T15:02:31;28.63;;;20.73;;
2542;SDS011;1116;51.502;7.414;2023-02-16T15:05:16;27.20;;;22.93;;
2542;SDS011;1116;51.502;7.414;2023-02-16T15:07:48;28.73;;;23.23;;
2542;SDS011;1116;51.502;7.414;2023-02-16T15:10:22;25.80;;;21.23;;
2542;SDS011;1116;51.502;7.414;2023-02-16T15:12:56;26.10;;;20.00;;
2542;SDS011;1116;51.502;7.414;2023-02-16T15:15:28;29.50;;;22.67;;
2542;SDS011;1116;51.502;7.414;2023-02-16T15:18:11;26.90;;;21.53;;
2542;SDS011;1116;51.502;7.414;2023-02-16T15:20:49;30.83;;;21.97;;
2542;SDS011;1116;51.502;7.414;2023-02-16T15:23:24;26.73;;;20.63;;
2542;SDS011;1116;51.502;7.414;2023-02-16T15:25:57;26.23;;;20.90;;
2542;SDS011;1116;51.502;7.414;2023-02-16T15:28:30;25.17;;;20.70;;
2542;SDS011;1116;51.502;7.414;2023-02-16T15:31:04;24.43;;;21.03;;
2542;SDS011;1116;51.502;7.414;2023-02-16T15:33:39;25.27;;;19.90;;
2542;SDS011;1116;51.502;7.414;2023-02-16T15:36:15;24.67;;;20.27;;
2542;SDS011;1116;51.502;7.414;2023-02-16T15:38:54;26.20;;;21.47;;
2542;SDS011;1116;51.502;7.414;2023-02-16T15:41:26;26.60;;;21.10;;
2542;SDS011;1116;51.502;7.414;2023-02-16T15:43:59;22.50;;;19.40;;
2542;SDS011;1116;51.502;7.414;2023-02-16T15:46:35;24.17;;;20.00;;
2542;SDS011;1116;51.502;7.414;2023-02-16T15:49:12;22.37;;;19.97;;
2542;SDS011;1116;51.502;7.414;2023-02-16T15:51:46;21.97;;;19.23;;
2542;SDS011;1116;51.502;7.414;2023-02-16T15:54:20;24.37;;;19.50;;
2542;SDS011;1116;51.502;7.414;2023-02-16T15:56:54;24.73;;;19.03;;
2542;SDS011;1116;51.502;7.414;2023-02-16T15:59:28;24.23;;;19.57;;
2542;SDS011;1116;51.502;7.414;2023-02-16T16:02:08;25.17;;;20.27;;
2542;SDS011;1116;51.502;7.414;2023-02-16T16:04:43;23.60;;;19.80;;
2542;SDS011;1116;51.502;7.414;2023-02-16T16:07:19;21.47;;;18.10;;
2542;SDS011;1116;51.502;7.414;2023-02-16T16:10:06;27.70;;;19.30;;
2542;SDS011;1116;51.502;7.414;2023-02-16T16:13:01;21.20;;;18.67;;
2542;SDS011;1116;51.502;7.414;2023-02-16T16:15:35;21.20;;;18.13;;
2542;SDS011;1116;51.502;7.414;2023-02-16T16:21:15;20.47;;;17.87;;
2542;SDS011;1116;51.502;7.414;2023-02-16T16:23:54;21.00;;;17.50;;